createdAt,value
2018-12-25T00:00:37.038Z,10.40
2018-12-25T00:01:37.072Z,9.60
2018-12-25T00:02:37.106Z,9.50
2018-12-25T00:03:37.142Z,11.30
2018-12-25T00:04:37.176Z,11.90
2018-12-25T00:05:37.302Z,9.90
2018-12-25T00:06:37.253Z,10.40
2018-12-25T00:07:37.281Z,12.10
2018-12-25T00:08:37.317Z,12.00
2018-12-25T00:09:37.350Z,10.80
2018-12-25T00:10:37.386Z,10.90
2018-12-25T00:11:37.428Z,12.20
2018-12-25T00:12:37.456Z,12.00
2018-12-25T00:13:37.494Z,11.60
2018-12-25T00:14:37.642Z,11.10
2018-12-25T00:15:37.573Z,12.60
2018-12-25T00:16:37.599Z,13.00
2018-12-25T00:17:37.631Z,10.00
2018-12-25T00:18:37.665Z,11.10
2018-12-25T00:19:37.702Z,10.90
2018-12-25T00:20:37.736Z,11.30
2018-12-25T00:21:37.771Z,10.50
2018-12-25T00:22:37.806Z,11.30
2018-12-25T00:23:37.843Z,10.90
2018-12-25T00:24:37.879Z,10.80
2018-12-25T00:25:37.910Z,9.90
2018-12-25T00:26:37.946Z,11.80
2018-12-25T00:27:37.989Z,11.70
2018-12-25T00:28:38.018Z,10.00
2018-12-25T00:29:38.053Z,10.00
2018-12-25T00:30:38.086Z,10.60
2018-12-25T00:31:38.122Z,11.40
2018-12-25T00:32:38.159Z,10.10
2018-12-25T00:33:38.191Z,9.50
2018-12-25T00:34:38.229Z,10.60
2018-12-25T00:35:38.291Z,10.10
2018-12-25T00:36:38.298Z,12.00
2018-12-25T00:37:38.336Z,11.30
2018-12-25T00:38:38.374Z,10.30
2018-12-25T00:39:38.401Z,11.10
2018-12-25T00:40:38.438Z,10.40
2018-12-25T00:41:38.473Z,9.80
2018-12-25T00:42:38.508Z,11.10
2018-12-25T00:43:38.545Z,11.90
2018-12-25T00:44:38.577Z,10.80
2018-12-25T00:45:38.629Z,10.30
2018-12-25T00:46:38.696Z,11.50
2018-12-25T00:47:38.684Z,12.50
2018-12-25T00:48:38.718Z,10.90
2018-12-25T00:49:38.752Z,9.50
2018-12-25T00:50:38.788Z,10.70
2018-12-25T00:51:38.824Z,10.60
2018-12-25T00:52:38.860Z,11.30
2018-12-25T00:53:38.898Z,9.80
2018-12-25T00:54:38.931Z,9.70
2018-12-25T00:55:38.965Z,9.10
2018-12-25T00:56:38.999Z,10.10
2018-12-25T00:57:39.035Z,10.60
2018-12-25T00:58:39.087Z,10.10
2018-12-25T00:59:39.108Z,10.40
2018-12-25T01:00:39.141Z,10.30
2018-12-25T01:01:39.191Z,10.20
2018-12-25T01:02:39.213Z,8.50
2018-12-25T01:03:39.245Z,10.60
2018-12-25T01:04:39.281Z,9.90
2018-12-25T01:05:39.316Z,9.90
2018-12-25T01:06:39.367Z,8.90
2018-12-25T01:07:39.388Z,9.70
2018-12-25T01:08:39.432Z,10.10
2018-12-25T01:09:39.460Z,12.10
2018-12-25T01:10:39.494Z,8.80
2018-12-25T01:11:39.529Z,9.10
2018-12-25T01:12:39.563Z,9.50
2018-12-25T01:13:39.599Z,11.10
2018-12-25T01:14:39.634Z,8.60
2018-12-25T01:15:39.670Z,10.10
2018-12-25T01:16:39.705Z,8.60
2018-12-25T01:17:39.740Z,9.80
2018-12-25T01:18:39.774Z,10.80
2018-12-25T01:19:39.820Z,9.40
2018-12-25T01:20:39.848Z,10.20
2018-12-25T01:21:39.983Z,9.70
2018-12-25T01:22:39.916Z,9.70
2018-12-25T01:23:39.954Z,9.70
2018-12-25T01:24:39.994Z,10.00
2018-12-25T01:25:40.025Z,8.40
2018-12-25T01:26:40.059Z,8.40
2018-12-25T01:27:40.097Z,10.40
2018-12-25T01:28:40.129Z,9.70
2018-12-25T01:29:40.164Z,9.70
2018-12-25T01:30:40.200Z,9.70
2018-12-25T01:31:40.242Z,9.20
2018-12-25T01:32:40.272Z,10.60
2018-12-25T01:33:40.307Z,9.90
2018-12-25T01:34:40.348Z,8.60
2018-12-25T01:35:40.379Z,11.10
2018-12-25T01:36:40.411Z,8.60
2018-12-25T01:37:40.445Z,9.00
2018-12-25T01:38:40.489Z,9.50
2018-12-25T01:39:40.517Z,9.60
2018-12-25T01:40:40.559Z,7.80
2018-12-25T01:41:40.589Z,9.10
2018-12-25T01:42:40.641Z,10.30
2018-12-25T01:43:40.658Z,8.20
2018-12-25T01:44:40.694Z,7.70
2018-12-25T01:45:40.729Z,8.00
2018-12-25T01:46:40.764Z,8.90
2018-12-25T01:47:40.799Z,8.60
2018-12-25T01:48:40.843Z,8.70
2018-12-25T01:49:40.868Z,7.90
2018-12-25T01:50:40.906Z,7.80
2018-12-25T01:51:40.949Z,9.00
2018-12-25T01:52:40.979Z,8.00
2018-12-25T01:53:41.012Z,8.20
2018-12-25T01:54:41.046Z,8.70
2018-12-25T01:55:41.093Z,8.20
2018-12-25T01:56:41.118Z,10.20
2018-12-25T01:57:41.153Z,8.90
2018-12-25T01:58:41.192Z,11.30
2018-12-25T01:59:41.223Z,9.80
2018-12-25T02:00:41.263Z,10.10
2018-12-25T02:01:41.299Z,9.80
2018-12-25T02:02:41.329Z,10.00
2018-12-25T02:03:41.367Z,11.90
2018-12-25T02:04:41.402Z,11.20
2018-12-25T02:05:41.434Z,12.60
2018-12-25T02:06:41.470Z,12.10
2018-12-25T02:07:41.506Z,10.60
2018-12-25T02:08:41.545Z,10.60
2018-12-25T02:09:41.579Z,11.30
2018-12-25T02:10:41.612Z,9.50
2018-12-25T02:11:41.648Z,11.00
2018-12-25T02:12:41.700Z,10.80
2018-12-25T02:13:41.769Z,9.00
2018-12-25T02:14:41.755Z,10.20
2018-12-25T02:15:41.798Z,9.40
2018-12-25T02:16:41.826Z,9.50
2018-12-25T02:17:41.859Z,9.70
2018-12-25T02:18:41.951Z,10.90
2018-12-25T02:19:41.935Z,9.40
2018-12-25T02:20:41.968Z,10.40
2018-12-25T02:21:42.010Z,9.90
2018-12-25T02:22:42.037Z,10.00
2018-12-25T02:23:42.072Z,10.40
2018-12-25T02:24:42.108Z,9.80
2018-12-25T02:25:42.152Z,10.60
2018-12-25T02:26:42.177Z,11.20
2018-12-25T02:27:42.221Z,10.90
2018-12-25T02:28:42.255Z,11.00
2018-12-25T02:29:42.285Z,12.70
2018-12-25T02:30:42.320Z,10.90
2018-12-25T02:31:42.357Z,11.10
2018-12-25T02:32:42.393Z,12.80
2018-12-25T02:33:42.437Z,12.10
2018-12-25T02:34:42.466Z,11.00
2018-12-25T02:35:42.501Z,10.00
2018-12-25T02:36:42.535Z,8.00
2018-12-25T02:37:42.571Z,7.60
2018-12-25T02:38:42.605Z,6.60
2018-12-25T02:39:42.640Z,7.20
2018-12-25T02:40:42.676Z,6.30
2018-12-25T02:41:42.722Z,6.00
2018-12-25T02:42:42.746Z,7.60
2018-12-25T02:43:42.785Z,7.00
2018-12-25T02:44:42.817Z,7.00
2018-12-25T02:45:42.855Z,6.90
2018-12-25T02:46:42.889Z,7.00
2018-12-25T02:47:42.924Z,7.30
2018-12-25T02:48:42.959Z,6.90
2018-12-25T02:49:50.274Z,7.10
2018-12-25T02:50:43.085Z,8.00
2018-12-25T02:51:43.071Z,7.50
2018-12-25T02:52:43.102Z,6.80
2018-12-25T02:53:43.137Z,6.20
2018-12-25T02:54:43.179Z,7.60
2018-12-25T02:55:43.209Z,7.80
2018-12-25T02:56:43.243Z,8.00
2018-12-25T02:57:43.279Z,7.80
2018-12-25T02:58:43.314Z,8.30
2018-12-25T02:59:43.352Z,8.30
2018-12-25T03:00:43.396Z,8.00
2018-12-25T03:01:43.422Z,7.10
2018-12-25T03:02:43.463Z,7.80
2018-12-25T03:03:43.493Z,6.60
2018-12-25T03:04:43.552Z,6.30
2018-12-25T03:05:43.563Z,6.50
2018-12-25T03:06:43.601Z,6.80
2018-12-25T03:07:43.634Z,6.60
2018-12-25T03:08:43.670Z,6.20
2018-12-25T03:09:43.704Z,6.50
2018-12-25T03:10:43.742Z,5.50
2018-12-25T03:11:43.779Z,5.70
2018-12-25T03:12:43.814Z,5.70
2018-12-25T03:13:43.945Z,6.30
2018-12-25T03:14:43.883Z,5.70
2018-12-25T03:15:43.918Z,5.70
2018-12-25T03:16:43.953Z,7.20
2018-12-25T03:17:43.986Z,5.10
2018-12-25T03:18:44.026Z,5.80
2018-12-25T03:19:44.060Z,7.50
2018-12-25T03:20:44.099Z,6.60
2018-12-25T03:21:44.129Z,5.50
2018-12-25T03:22:44.164Z,6.10
2018-12-25T03:23:44.207Z,7.10
2018-12-25T03:24:44.238Z,5.30
2018-12-25T03:25:44.273Z,7.10
2018-12-25T03:26:44.309Z,6.40
2018-12-25T03:27:44.353Z,7.40
2018-12-25T03:28:44.381Z,5.50
2018-12-25T03:29:44.416Z,6.00
2018-12-25T03:30:44.458Z,5.50
2018-12-25T03:31:44.515Z,5.60
2018-12-25T03:32:44.550Z,5.80
2018-12-25T03:33:44.557Z,6.40
2018-12-25T03:34:44.593Z,4.40
2018-12-25T03:35:44.630Z,5.50
2018-12-25T03:36:44.667Z,6.60
2018-12-25T03:37:44.703Z,6.10
2018-12-25T03:38:44.740Z,6.00
2018-12-25T03:39:44.771Z,5.70
2018-12-25T03:40:44.806Z,6.00
2018-12-25T03:41:44.859Z,9.50
2018-12-25T03:42:44.876Z,5.60
2018-12-25T03:43:44.921Z,5.00
2018-12-25T03:44:44.953Z,6.80
2018-12-25T03:45:45.000Z,7.40
2018-12-25T03:46:45.020Z,6.40
2018-12-25T03:47:45.055Z,7.50
2018-12-25T03:48:45.093Z,9.80
2018-12-25T03:49:45.126Z,7.70
2018-12-25T03:50:45.167Z,8.40
2018-12-25T03:51:45.205Z,8.40
2018-12-25T03:52:45.234Z,8.50
2018-12-25T03:53:45.271Z,10.50
2018-12-25T03:54:45.303Z,8.30
2018-12-25T03:55:45.339Z,10.30
2018-12-25T03:56:45.381Z,10.30
2018-12-25T03:57:45.414Z,9.90
2018-12-25T03:58:45.447Z,10.20
2018-12-25T03:59:45.483Z,9.80
2018-12-25T04:00:45.533Z,10.70
2018-12-25T04:01:45.560Z,9.90
2018-12-25T04:02:45.590Z,10.10
2018-12-25T04:03:45.624Z,10.30
2018-12-25T04:04:45.658Z,10.60
2018-12-25T04:05:45.695Z,10.30
2018-12-25T04:06:45.729Z,10.50
2018-12-25T04:07:45.767Z,9.20
2018-12-25T04:08:45.906Z,9.10
2018-12-25T04:09:45.842Z,10.70
2018-12-25T04:10:45.873Z,9.50
2018-12-25T04:11:45.907Z,9.70
2018-12-25T04:12:45.945Z,9.50
2018-12-25T04:13:46.072Z,11.40
2018-12-25T04:14:46.018Z,10.40
2018-12-25T04:15:46.050Z,10.60
2018-12-25T04:16:46.088Z,9.00
2018-12-25T04:17:46.124Z,9.20
2018-12-25T04:18:46.161Z,9.70
2018-12-25T04:19:46.214Z,10.30
2018-12-25T04:20:46.244Z,9.90
2018-12-25T04:21:46.263Z,10.40
2018-12-25T04:22:46.299Z,9.40
2018-12-25T04:23:46.337Z,9.50
2018-12-25T04:24:46.375Z,9.00
2018-12-25T04:25:46.410Z,9.40
2018-12-25T04:26:46.442Z,9.80
2018-12-25T04:27:46.486Z,9.70
2018-12-25T04:28:46.522Z,8.70
2018-12-25T04:29:46.549Z,9.70
2018-12-25T04:30:46.585Z,8.80
2018-12-25T04:31:46.620Z,7.70
2018-12-25T04:32:46.660Z,8.50
2018-12-25T04:33:46.692Z,8.40
2018-12-25T04:34:46.727Z,9.80
2018-12-25T04:35:46.764Z,9.40
2018-12-25T04:36:46.803Z,8.50
2018-12-25T04:37:46.833Z,8.50
2018-12-25T04:38:46.869Z,8.10
2018-12-25T04:39:46.913Z,8.80
2018-12-25T04:40:46.942Z,8.50
2018-12-25T04:41:46.975Z,8.10
2018-12-25T04:42:47.026Z,7.60
2018-12-25T04:43:47.048Z,8.70
2018-12-25T04:44:47.083Z,10.20
2018-12-25T04:45:47.132Z,7.30
2018-12-25T04:46:47.153Z,7.90
2018-12-25T04:47:47.190Z,8.60
2018-12-25T04:48:47.224Z,8.00
2018-12-25T04:49:47.259Z,8.50
2018-12-25T04:50:47.309Z,8.50
2018-12-25T04:51:47.332Z,7.40
2018-12-25T04:52:47.373Z,8.90
2018-12-25T04:53:47.401Z,7.80
2018-12-25T04:54:47.437Z,7.80
2018-12-25T04:55:47.473Z,8.00
2018-12-25T04:56:47.509Z,8.40
2018-12-25T04:57:47.542Z,6.90
2018-12-25T04:58:47.578Z,9.50
2018-12-25T04:59:47.613Z,7.80
2018-12-25T05:00:47.648Z,7.70
2018-12-25T05:01:47.683Z,9.60
2018-12-25T05:02:47.719Z,7.80
2018-12-25T05:03:47.753Z,8.20
2018-12-25T05:04:47.790Z,7.40
2018-12-25T05:05:47.825Z,7.50
2018-12-25T05:06:47.861Z,10.40
2018-12-25T05:07:47.897Z,7.60
2018-12-25T05:08:47.932Z,7.90
2018-12-25T05:09:47.966Z,8.60
2018-12-25T05:10:48.002Z,7.00
2018-12-25T05:11:48.039Z,8.30
2018-12-25T05:12:48.078Z,7.20
2018-12-25T05:13:48.109Z,8.40
2018-12-25T05:14:48.144Z,8.30
2018-12-25T05:15:48.182Z,7.30
2018-12-25T05:16:48.224Z,8.70
2018-12-25T05:17:48.252Z,8.70
2018-12-25T05:18:48.285Z,6.80
2018-12-25T05:19:48.326Z,7.60
2018-12-25T05:20:48.357Z,7.00
2018-12-25T05:21:48.395Z,8.80
2018-12-25T05:22:48.427Z,7.30
2018-12-25T05:23:48.464Z,7.80
2018-12-25T05:24:48.500Z,7.30
2018-12-25T05:25:48.534Z,7.20
2018-12-25T05:26:48.569Z,6.90
2018-12-25T05:27:48.611Z,6.50
2018-12-25T05:28:48.639Z,6.80
2018-12-25T05:29:50.729Z,7.00
2018-12-25T05:30:48.716Z,6.00
2018-12-25T05:31:48.747Z,5.80
2018-12-25T05:32:48.782Z,5.40
2018-12-25T05:33:48.822Z,6.60
2018-12-25T05:34:48.853Z,5.90
2018-12-25T05:35:48.888Z,5.50
2018-12-25T05:36:48.925Z,4.60
2018-12-25T05:37:48.964Z,5.80
2018-12-25T05:38:49.098Z,4.50
2018-12-25T05:39:49.031Z,5.00
2018-12-25T05:40:49.068Z,4.70
2018-12-25T05:41:49.104Z,4.90
2018-12-25T05:42:49.142Z,6.10
2018-12-25T05:43:49.174Z,4.80
2018-12-25T05:44:49.211Z,5.30
2018-12-25T05:45:49.251Z,5.50
2018-12-25T05:46:49.281Z,4.70
2018-12-25T05:47:49.319Z,4.40
2018-12-25T05:48:49.354Z,6.30
2018-12-25T05:49:49.393Z,5.20
2018-12-25T05:50:49.423Z,5.00
2018-12-25T05:51:49.467Z,5.10
2018-12-25T05:52:49.494Z,5.50
2018-12-25T05:53:49.529Z,5.00
2018-12-25T05:54:49.574Z,6.30
2018-12-25T05:55:49.600Z,6.10
2018-12-25T05:56:49.638Z,6.60
2018-12-25T05:57:49.673Z,6.60
2018-12-25T05:58:49.718Z,6.50
2018-12-25T05:59:49.744Z,5.90
2018-12-25T06:00:49.788Z,8.70
2018-12-25T06:01:49.813Z,6.40
2018-12-25T06:02:49.849Z,5.70
2018-12-25T06:03:49.886Z,5.80
2018-12-25T06:04:49.921Z,6.30
2018-12-25T06:05:49.957Z,10.50
2018-12-25T06:06:49.992Z,6.90
2018-12-25T06:07:50.027Z,5.70
2018-12-25T06:08:50.064Z,6.10
2018-12-25T06:09:50.100Z,7.10
2018-12-25T06:10:50.135Z,6.00
2018-12-25T06:11:50.172Z,5.10
2018-12-25T06:12:50.206Z,4.90
2018-12-25T06:13:50.241Z,6.30
2018-12-25T06:14:50.278Z,5.80
2018-12-25T06:15:50.314Z,5.00
2018-12-25T06:16:50.359Z,4.60
2018-12-25T06:17:50.384Z,5.60
2018-12-25T06:18:50.420Z,4.20
2018-12-25T06:19:50.463Z,5.20
2018-12-25T06:20:55.088Z,6.20
2018-12-25T06:21:50.526Z,4.30
2018-12-25T06:22:50.562Z,5.30
2018-12-25T06:23:50.599Z,6.20
2018-12-25T06:24:50.636Z,6.80
2018-12-25T06:25:50.670Z,5.20
2018-12-25T06:26:50.706Z,6.10
2018-12-25T06:27:50.743Z,5.70
2018-12-25T06:28:50.787Z,6.40
2018-12-25T06:29:50.814Z,5.80
2018-12-25T06:30:50.849Z,7.00
2018-12-25T06:31:50.885Z,4.90
2018-12-25T06:32:50.964Z,5.30
2018-12-25T06:33:50.957Z,4.80
2018-12-25T06:34:51.001Z,4.80
2018-12-25T06:35:51.036Z,6.10
2018-12-25T06:36:51.065Z,6.10
2018-12-25T06:37:51.110Z,6.80
2018-12-25T06:38:51.134Z,4.80
2018-12-25T06:39:51.171Z,5.00
2018-12-25T06:40:51.208Z,4.40
2018-12-25T06:41:51.243Z,4.10
2018-12-25T06:42:51.279Z,3.80
2018-12-25T06:43:51.316Z,6.60
2018-12-25T06:44:51.351Z,4.90
2018-12-25T06:45:51.386Z,4.50
2018-12-25T06:46:51.422Z,4.90
2018-12-25T06:47:51.465Z,6.10
2018-12-25T06:48:51.496Z,3.90
2018-12-25T06:49:51.531Z,5.10
2018-12-25T06:50:51.566Z,7.20
2018-12-25T06:51:51.603Z,5.00
2018-12-25T06:52:51.645Z,5.80
2018-12-25T06:53:51.674Z,3.60
2018-12-25T06:54:51.709Z,4.00
2018-12-25T06:55:51.745Z,5.80
2018-12-25T06:56:51.877Z,5.90
2018-12-25T06:57:51.825Z,4.10
2018-12-25T06:58:51.857Z,5.00
2018-12-25T06:59:51.889Z,4.10
2018-12-25T07:00:51.927Z,5.20
2018-12-25T07:01:51.961Z,6.60
2018-12-25T07:02:51.998Z,4.80
2018-12-25T07:03:52.033Z,5.60
2018-12-25T07:04:52.071Z,5.30
2018-12-25T07:05:52.103Z,5.20
2018-12-25T07:06:52.139Z,6.60
2018-12-25T07:07:52.178Z,5.30
2018-12-25T07:08:52.217Z,6.10
2018-12-25T07:09:52.245Z,9.10
2018-12-25T07:10:52.281Z,8.00
2018-12-25T07:11:52.319Z,7.80
2018-12-25T07:12:52.353Z,5.90
2018-12-25T07:13:52.389Z,5.30
2018-12-25T07:14:52.424Z,5.30
2018-12-25T07:15:52.459Z,4.60
2018-12-25T07:16:52.495Z,6.80
2018-12-25T07:17:52.530Z,6.20
2018-12-25T07:18:52.568Z,7.50
2018-12-25T07:19:52.603Z,9.50
2018-12-25T07:20:52.649Z,8.90
2018-12-25T07:21:52.675Z,7.20
2018-12-25T07:22:52.718Z,5.90
2018-12-25T07:23:52.754Z,6.30
2018-12-25T07:24:52.782Z,6.10
2018-12-25T07:25:52.818Z,5.20
2018-12-25T07:26:52.853Z,5.60
2018-12-25T07:27:52.889Z,5.90
2018-12-25T07:28:52.926Z,5.00
2018-12-25T07:29:52.961Z,5.30
2018-12-25T07:30:53.001Z,5.80
2018-12-25T07:31:53.062Z,6.80
2018-12-25T07:32:53.068Z,5.90
2018-12-25T07:33:53.108Z,5.60
2018-12-25T07:34:53.141Z,5.20
2018-12-25T07:35:53.183Z,5.60
2018-12-25T07:36:53.212Z,6.70
2018-12-25T07:37:53.247Z,5.90
2018-12-25T07:38:53.282Z,5.40
2018-12-25T07:39:53.320Z,5.20
2018-12-25T07:40:53.356Z,5.20
2018-12-25T07:41:53.391Z,5.50
2018-12-25T07:42:53.430Z,5.50
2018-12-25T07:43:53.461Z,6.80
2018-12-25T07:44:53.498Z,5.80
2018-12-25T07:45:53.531Z,6.90
2018-12-25T07:46:53.569Z,6.10
2018-12-25T07:47:53.605Z,5.20
2018-12-25T07:48:53.641Z,6.40
2018-12-25T07:49:53.675Z,5.10
2018-12-25T07:50:53.711Z,5.60
2018-12-25T07:51:53.750Z,5.70
2018-12-25T07:52:53.783Z,4.60
2018-12-25T07:53:53.819Z,7.40
2018-12-25T07:54:53.967Z,5.20
2018-12-25T07:55:53.894Z,6.30
2018-12-25T07:56:53.934Z,6.50
2018-12-25T07:57:53.963Z,5.60
2018-12-25T07:58:54.010Z,7.90
2018-12-25T07:59:54.034Z,6.30
2018-12-25T08:00:54.071Z,5.90
2018-12-25T08:01:54.106Z,5.80
2018-12-25T08:02:54.151Z,6.70
2018-12-25T08:03:54.177Z,6.80
2018-12-25T08:04:54.221Z,5.60
2018-12-25T08:05:54.266Z,6.00
2018-12-25T08:06:54.291Z,7.40
2018-12-25T08:07:54.322Z,6.30
2018-12-25T08:08:54.365Z,6.70
2018-12-25T08:09:54.394Z,8.00
2018-12-25T08:10:54.435Z,6.10
2018-12-25T08:11:54.468Z,7.80
2018-12-25T08:12:54.503Z,8.20
2018-12-25T08:13:54.537Z,6.20
2018-12-25T08:14:54.572Z,6.30
2018-12-25T08:15:54.807Z,8.10
2018-12-25T08:16:54.644Z,6.50
2018-12-25T08:17:54.678Z,6.60
2018-12-25T08:18:54.717Z,6.80
2018-12-25T08:19:54.758Z,8.60
2018-12-25T08:20:54.787Z,7.90
2018-12-25T08:21:54.823Z,8.70
2018-12-25T08:23:02.408Z,7.40
2018-12-25T08:23:54.898Z,7.50
2018-12-25T08:24:54.972Z,6.80
2018-12-25T08:25:54.970Z,7.00
2018-12-25T08:26:55.003Z,7.50
2018-12-25T08:27:55.040Z,7.80
2018-12-25T08:28:55.074Z,7.50
2018-12-25T08:29:55.110Z,7.00
2018-12-25T08:30:55.149Z,7.10
2018-12-25T08:31:55.182Z,7.20
2018-12-25T08:32:55.220Z,9.20
2018-12-25T08:33:55.254Z,6.90
2018-12-25T08:34:55.289Z,7.70
2018-12-25T08:35:55.334Z,8.60
2018-12-25T08:36:55.361Z,8.20
2018-12-25T08:37:55.397Z,7.90
2018-12-25T08:38:55.434Z,9.90
2018-12-25T08:39:55.468Z,8.70
2018-12-25T08:40:55.505Z,9.20
2018-12-25T08:41:55.544Z,7.50
2018-12-25T08:42:55.579Z,7.40
2018-12-25T08:43:55.615Z,7.40
2018-12-25T08:44:55.656Z,7.30
2018-12-25T08:45:55.686Z,9.90
2018-12-25T08:46:55.722Z,7.40
2018-12-25T08:47:55.759Z,7.50
2018-12-25T08:48:55.795Z,9.40
2018-12-25T08:49:55.922Z,7.70
2018-12-25T08:50:55.866Z,7.50
2018-12-25T08:51:55.904Z,9.20
2018-12-25T08:52:55.936Z,8.30
2018-12-25T08:53:55.973Z,11.40
2018-12-25T08:54:56.009Z,8.00
2018-12-25T08:55:56.045Z,9.20
2018-12-25T08:56:56.081Z,8.80
2018-12-25T08:57:56.115Z,10.70
2018-12-25T08:58:56.156Z,10.40
2018-12-25T08:59:56.189Z,11.60
2018-12-25T09:00:56.224Z,8.80
2018-12-25T09:01:56.263Z,9.00
2018-12-25T09:02:56.296Z,10.40
2018-12-25T09:03:56.333Z,9.80
2018-12-25T09:04:56.373Z,9.30
2018-12-25T09:05:56.405Z,9.60
2018-12-25T09:06:56.441Z,10.10
2018-12-25T09:07:56.478Z,9.20
2018-12-25T09:08:56.516Z,9.40
2018-12-25T09:09:56.548Z,8.90
2018-12-25T09:10:56.585Z,9.00
2018-12-25T09:11:56.632Z,10.10
2018-12-25T09:12:56.668Z,8.50
2018-12-25T09:13:56.695Z,8.80
2018-12-25T09:14:56.734Z,8.60
2018-12-25T09:15:56.767Z,9.50
2018-12-25T09:16:56.806Z,9.80
2018-12-25T09:17:56.851Z,9.80
2018-12-25T09:18:56.876Z,9.50
2018-12-25T09:19:56.911Z,8.80
2018-12-25T09:20:56.949Z,8.50
2018-12-25T09:21:56.982Z,9.20
2018-12-25T09:22:57.018Z,9.00
2018-12-25T09:23:57.054Z,9.50
2018-12-25T09:24:57.099Z,8.50
2018-12-25T09:25:57.127Z,15.10
2018-12-25T09:26:57.163Z,31.70
2018-12-25T09:27:57.200Z,18.30
2018-12-25T09:28:57.236Z,17.60
2018-12-25T09:29:57.273Z,12.70
2018-12-25T09:30:57.326Z,10.30
2018-12-25T09:31:57.371Z,9.10
2018-12-25T09:32:57.380Z,9.70
2018-12-25T09:33:57.418Z,9.50
2018-12-25T09:34:57.455Z,8.50
2018-12-25T09:35:57.495Z,8.70
2018-12-25T09:36:57.527Z,9.40
2018-12-25T09:37:57.562Z,9.60
2018-12-25T09:38:57.599Z,9.20
2018-12-25T09:39:57.636Z,8.70
2018-12-25T09:40:57.673Z,9.70
2018-12-25T09:41:57.792Z,9.20
2018-12-25T09:42:57.746Z,9.40
2018-12-25T09:43:57.782Z,11.00
2018-12-25T09:44:57.826Z,9.20
2018-12-25T09:45:57.854Z,8.20
2018-12-25T09:46:57.891Z,9.00
2018-12-25T09:47:57.928Z,10.00
2018-12-25T09:48:57.964Z,8.70
2018-12-25T09:49:58.002Z,9.10
2018-12-25T09:50:58.038Z,10.00
2018-12-25T09:51:58.074Z,8.80
2018-12-25T09:52:58.122Z,8.30
2018-12-25T09:53:58.145Z,11.10
2018-12-25T09:54:58.193Z,9.60
2018-12-25T09:55:58.218Z,8.50
2018-12-25T09:56:58.371Z,10.90
2018-12-25T09:57:58.290Z,8.50
2018-12-25T09:58:58.330Z,10.10
2018-12-25T09:59:58.370Z,8.40
2018-12-25T10:00:58.403Z,9.30
2018-12-25T10:01:58.437Z,8.60
2018-12-25T10:02:58.475Z,9.80
2018-12-25T10:03:58.511Z,9.30
2018-12-25T10:04:58.555Z,9.00
2018-12-25T10:05:58.583Z,10.10
2018-12-25T10:06:58.623Z,9.40
2018-12-25T10:07:58.660Z,8.30
2018-12-25T10:08:58.694Z,8.60
2018-12-25T10:09:58.730Z,8.40
2018-12-25T10:10:58.776Z,9.30
2018-12-25T10:11:58.808Z,9.40
2018-12-25T10:12:58.843Z,9.90
2018-12-25T10:13:58.877Z,9.20
2018-12-25T10:14:58.914Z,9.10
2018-12-25T10:15:58.951Z,10.10
2018-12-25T10:16:58.991Z,8.70
2018-12-25T10:17:59.625Z,9.80
2018-12-25T10:18:59.065Z,8.70
2018-12-25T10:19:59.153Z,10.10
2018-12-25T10:20:59.140Z,11.00
2018-12-25T10:22:02.937Z,13.10
2018-12-25T10:22:59.224Z,10.20
2018-12-25T10:23:59.251Z,9.90
2018-12-25T10:24:59.286Z,9.40
2018-12-25T10:25:59.321Z,8.70
2018-12-25T10:26:59.361Z,9.50
2018-12-25T10:27:59.395Z,8.50
2018-12-25T10:28:59.441Z,7.80
2018-12-25T10:29:59.467Z,7.90
2018-12-25T10:30:59.508Z,9.00
2018-12-25T10:31:59.543Z,10.30
2018-12-25T10:32:59.579Z,8.90
2018-12-25T10:33:59.616Z,9.50
2018-12-25T10:34:59.654Z,10.10
2018-12-25T10:35:59.691Z,9.40
2018-12-25T10:36:59.819Z,7.80
2018-12-25T10:37:59.765Z,9.00
2018-12-25T10:38:59.802Z,9.00
2018-12-25T10:39:59.842Z,8.80
2018-12-25T10:40:59.935Z,9.10
2018-12-25T10:41:59.921Z,8.20
2018-12-25T10:42:59.949Z,7.60
2018-12-25T10:43:59.989Z,8.60
2018-12-25T10:45:00.025Z,7.90
2018-12-25T10:46:00.061Z,8.00
2018-12-25T10:47:00.098Z,8.20
2018-12-25T10:48:00.136Z,9.90
2018-12-25T10:49:00.175Z,7.60
2018-12-25T10:50:00.219Z,8.00
2018-12-25T10:51:00.247Z,8.10
2018-12-25T10:52:00.284Z,8.80
2018-12-25T10:53:00.323Z,8.60
2018-12-25T10:54:00.357Z,10.20
2018-12-25T10:55:00.397Z,8.70
2018-12-25T10:56:00.432Z,8.60
2018-12-25T10:57:00.470Z,9.30
2018-12-25T10:58:00.507Z,9.30
2018-12-25T10:59:00.544Z,11.20
2018-12-25T11:00:00.581Z,8.00
2018-12-25T11:01:00.616Z,9.10
2018-12-25T11:02:00.653Z,8.60
2018-12-25T11:03:00.690Z,8.30
2018-12-25T11:04:00.736Z,9.70
2018-12-25T11:05:00.766Z,9.70
2018-12-25T11:06:00.802Z,9.30
2018-12-25T11:07:00.839Z,9.50
2018-12-25T11:08:00.882Z,9.00
2018-12-25T11:09:00.923Z,9.40
2018-12-25T11:10:00.950Z,8.70
2018-12-25T11:11:00.990Z,9.00
2018-12-25T11:12:01.084Z,9.90
2018-12-25T11:13:01.062Z,8.60
2018-12-25T11:14:01.103Z,10.30
2018-12-25T11:15:01.137Z,8.30
2018-12-25T11:16:01.175Z,8.80
2018-12-25T11:17:01.212Z,9.60
2018-12-25T11:18:01.250Z,8.30
2018-12-25T11:19:01.283Z,9.80
2018-12-25T11:20:01.331Z,9.60
2018-12-25T11:21:01.357Z,11.10
2018-12-25T11:22:01.395Z,8.90
2018-12-25T11:23:01.436Z,9.10
2018-12-25T11:24:01.469Z,8.80
2018-12-25T11:25:01.513Z,8.90
2018-12-25T11:26:01.545Z,9.30
2018-12-25T11:27:01.582Z,8.20
2018-12-25T11:28:01.617Z,9.80
2018-12-25T11:29:01.659Z,8.20
2018-12-25T11:30:01.698Z,8.80
2018-12-25T11:31:01.728Z,9.40
2018-12-25T11:32:01.768Z,9.40
2018-12-25T11:33:01.804Z,9.20
2018-12-25T11:34:02.672Z,8.60
2018-12-25T11:35:01.880Z,7.90
2018-12-25T11:36:01.919Z,8.10
2018-12-25T11:37:01.961Z,9.50
2018-12-25T11:38:01.989Z,6.80
2018-12-25T11:39:02.027Z,9.60
2018-12-25T11:40:02.065Z,9.40
2018-12-25T11:41:02.101Z,8.60
2018-12-25T11:42:02.139Z,7.20
2018-12-25T11:43:02.176Z,8.40
2018-12-25T11:44:02.216Z,8.40
2018-12-25T11:45:02.311Z,9.70
2018-12-25T11:46:02.296Z,8.20
2018-12-25T11:47:02.325Z,10.70
2018-12-25T11:48:02.363Z,7.80
2018-12-25T11:49:02.401Z,9.10
2018-12-25T11:50:02.437Z,7.80
2018-12-25T11:51:02.500Z,8.80
2018-12-25T11:52:02.514Z,7.70
2018-12-25T11:53:03.706Z,7.30
2018-12-25T11:54:02.587Z,8.60
2018-12-25T11:55:02.631Z,8.80
2018-12-25T11:56:02.670Z,7.70
2018-12-25T11:57:02.700Z,8.10
2018-12-25T11:58:02.756Z,9.20
2018-12-25T11:59:02.860Z,9.30
2018-12-25T12:00:02.813Z,10.00
2018-12-25T12:01:02.867Z,9.00
2018-12-25T12:02:02.886Z,8.50
2018-12-25T12:03:02.927Z,10.40
2018-12-25T12:04:02.962Z,10.20
2018-12-25T12:05:03.017Z,9.60
2018-12-25T12:06:03.038Z,10.30
2018-12-25T12:07:03.077Z,8.10
2018-12-25T12:08:03.113Z,8.60
2018-12-25T12:09:03.151Z,8.70
2018-12-25T12:10:03.186Z,7.50
2018-12-25T12:11:03.225Z,6.90
2018-12-25T12:12:03.271Z,8.20
2018-12-25T12:13:03.303Z,9.00
2018-12-25T12:14:03.386Z,7.70
2018-12-25T12:15:03.375Z,8.00
2018-12-25T12:16:03.416Z,8.80
2018-12-25T12:17:03.455Z,7.40
2018-12-25T12:18:03.490Z,8.70
2018-12-25T12:19:03.542Z,9.20
2018-12-25T12:20:03.562Z,9.30
2018-12-25T12:21:03.601Z,10.30
2018-12-25T12:22:03.637Z,9.10
2018-12-25T12:23:03.675Z,10.00
2018-12-25T12:24:03.717Z,10.20
2018-12-25T12:25:03.915Z,8.90
2018-12-25T12:26:03.792Z,9.20
2018-12-25T12:27:03.833Z,7.80
2018-12-25T12:28:03.877Z,8.30
2018-12-25T12:29:03.912Z,8.50
2018-12-25T12:30:03.967Z,8.30
2018-12-25T12:31:03.986Z,9.00
2018-12-25T12:32:04.172Z,9.00
2018-12-25T12:33:04.052Z,8.40
2018-12-25T12:34:04.091Z,8.20
2018-12-25T12:35:04.132Z,7.60
2018-12-25T12:36:04.175Z,9.40
2018-12-25T12:37:04.211Z,9.20
2018-12-25T12:38:04.240Z,9.90
2018-12-25T12:39:04.286Z,9.30
2018-12-25T12:40:04.316Z,9.60
2018-12-25T12:41:04.354Z,9.20
2018-12-25T12:42:04.389Z,9.00
2018-12-25T12:43:04.427Z,7.90
2018-12-25T12:44:04.466Z,9.10
2018-12-25T12:45:04.507Z,9.80
2018-12-25T12:46:04.539Z,9.60
2018-12-25T12:47:04.577Z,8.60
2018-12-25T12:48:04.617Z,9.20
2018-12-25T12:49:04.654Z,9.10
2018-12-25T12:50:04.698Z,10.20
2018-12-25T12:51:04.727Z,10.10
2018-12-25T12:52:04.766Z,11.10
2018-12-25T12:53:04.804Z,10.90
2018-12-25T12:54:04.863Z,9.30
2018-12-25T12:55:04.884Z,8.90
2018-12-25T12:56:04.919Z,9.70
2018-12-25T12:57:04.953Z,9.50
2018-12-25T12:58:04.989Z,8.70
2018-12-25T12:59:05.039Z,8.00
2018-12-25T13:00:05.067Z,9.00
2018-12-25T13:01:05.102Z,9.20
2018-12-25T13:02:05.144Z,7.90
2018-12-25T13:03:05.188Z,9.20
2018-12-25T13:04:05.215Z,9.30
2018-12-25T13:05:05.264Z,8.10
2018-12-25T13:06:05.290Z,9.10
2018-12-25T13:07:05.326Z,8.40
2018-12-25T13:08:05.364Z,9.50
2018-12-25T13:09:05.401Z,9.20
2018-12-25T13:10:05.438Z,10.60
2018-12-25T13:11:05.476Z,11.40
2018-12-25T13:12:05.521Z,12.60
2018-12-25T13:13:05.551Z,10.20
2018-12-25T13:14:05.588Z,9.90